createdAt,value
2023-02-13T01:40:13.218Z,14.70
2023-02-13T01:51:18.059Z,8.90
2023-02-13T02:02:18.047Z,8.20
2023-02-13T02:13:17.813Z,8.90
2023-02-13T02:24:17.690Z,8.10
2023-02-13T02:35:17.585Z,8.10
2023-02-13T02:48:12.700Z,15.70
2023-02-13T02:59:17.286Z,13.10
2023-02-13T03:10:17.154Z,11.90
2023-02-13T03:21:17.609Z,10.20
2023-02-13T03:32:23.937Z,10.70
2023-02-13T03:43:16.792Z,8.10
2023-02-13T03:54:16.657Z,8.50
2023-02-13T04:05:16.545Z,9.10
2023-02-13T04:16:16.439Z,8.20
2023-02-13T04:27:16.285Z,8.00
2023-02-13T04:38:16.191Z,8.50
2023-02-13T04:49:16.039Z,9.70
2023-02-13T05:00:15.915Z,7.30
2023-02-13T05:11:15.808Z,8.20
2023-02-13T05:22:15.666Z,10.30
2023-02-13T05:33:15.551Z,9.00
2023-02-13T05:44:15.425Z,9.60
2023-02-13T05:55:15.299Z,9.30
2023-02-13T06:06:15.163Z,8.40
2023-02-13T06:17:15.034Z,10.80
2023-02-13T06:28:15.017Z,8.40
2023-02-13T06:39:14.799Z,8.00
2023-02-13T06:50:14.724Z,9.40
2023-02-13T07:01:14.586Z,8.00
2023-02-13T07:12:14.410Z,8.90
2023-02-13T07:23:14.293Z,9.90
2023-02-13T07:34:14.187Z,8.60
2023-02-13T07:45:14.058Z,10.30
2023-02-13T07:56:13.934Z,9.60
2023-02-13T08:07:13.808Z,9.30
2023-02-13T08:18:13.700Z,10.90
2023-02-13T08:29:13.541Z,8.30
2023-02-13T08:40:13.418Z,10.40
2023-02-13T08:51:13.301Z,10.80
2023-02-13T09:02:13.186Z,11.40
2023-02-13T09:13:13.195Z,12.40
2023-02-13T09:24:12.924Z,11.60
2023-02-13T09:35:12.804Z,13.00
2023-02-13T09:46:12.762Z,11.40
2023-02-13T09:57:12.586Z,17.00
2023-02-13T10:08:12.443Z,15.30
2023-02-13T10:19:12.307Z,17.50
2023-02-13T10:25:42.847Z,18.20
2023-02-13T10:36:47.703Z,16.20
2023-02-13T10:47:47.563Z,16.90
2023-02-13T10:58:47.460Z,14.70
2023-02-13T11:09:47.314Z,14.30
2023-02-13T11:20:47.169Z,14.00
2023-02-13T11:31:47.173Z,12.10
2023-02-13T11:42:46.926Z,11.40
2023-02-13T11:53:46.804Z,11.30
2023-02-13T12:04:46.694Z,11.10
2023-02-13T12:15:46.590Z,10.70
2023-02-13T12:26:46.452Z,11.40
2023-02-13T12:37:46.326Z,12.30
2023-02-13T12:48:46.189Z,13.60
2023-02-13T12:59:46.066Z,13.00
2023-02-13T13:10:45.950Z,12.50
2023-02-13T13:21:45.826Z,15.70
2023-02-13T13:32:45.706Z,13.10
2023-02-13T13:43:45.598Z,14.70
2023-02-13T13:54:45.500Z,17.10
2023-02-13T14:05:45.333Z,15.00
2023-02-13T14:16:45.217Z,15.10
2023-02-13T14:27:45.103Z,14.90
2023-02-13T14:38:44.955Z,14.20
2023-02-13T14:49:44.840Z,13.70
2023-02-13T15:00:44.718Z,10.90
2023-02-13T15:11:44.621Z,10.30
2023-02-13T15:22:44.510Z,10.00
2023-02-13T15:33:44.357Z,11.20
2023-02-13T15:44:44.218Z,10.40
2023-02-13T15:55:44.099Z,10.40
2023-02-13T16:06:43.983Z,12.60
2023-02-13T16:17:43.868Z,11.60
2023-02-13T16:28:43.774Z,10.60
2023-02-13T16:39:43.620Z,9.40
2023-02-13T16:50:43.488Z,9.10
2023-02-13T17:01:43.361Z,11.60
2023-02-13T17:12:43.268Z,11.70
2023-02-13T17:24:27.309Z,15.70
2023-02-13T17:35:32.023Z,10.40
2023-02-13T17:46:31.890Z,10.50
2023-02-13T17:57:31.758Z,10.70
2023-02-13T18:08:31.752Z,11.20
2023-02-13T18:19:31.512Z,10.00
2023-02-13T18:30:31.482Z,12.80
2023-02-13T18:41:31.269Z,10.20
2023-02-13T18:52:31.144Z,11.10
2023-02-13T19:03:31.009Z,10.10
2023-02-13T19:14:30.889Z,11.80
2023-02-13T19:25:30.802Z,10.20
2023-02-13T19:36:30.645Z,11.70
2023-02-13T19:47:30.552Z,11.80
2023-02-13T19:58:30.408Z,11.10
2023-02-13T20:09:30.290Z,13.40
2023-02-13T20:20:30.152Z,9.00
2023-02-13T20:26:25.067Z,12.60
2023-02-13T20:37:29.920Z,8.60
2023-02-13T20:48:29.795Z,11.40
2023-02-13T20:59:29.677Z,11.00
2023-02-13T21:10:29.548Z,9.90
2023-02-13T21:21:29.435Z,10.80
2023-02-13T21:32:29.302Z,9.60
2023-02-13T21:43:29.185Z,10.70
2023-02-13T21:54:29.086Z,12.40
